createdAt,value
2023-01-22T00:00:44.215Z,63.31
2023-01-22T00:03:11.821Z,63.38
2023-01-22T00:05:39.465Z,63.41
2023-01-22T00:08:07.386Z,63.23
2023-01-22T00:10:35.041Z,63.15
2023-01-22T00:13:02.682Z,63.26
2023-01-22T00:15:30.381Z,63.46
2023-01-22T00:17:59.451Z,63.20
2023-01-22T00:20:27.381Z,63.45
2023-01-22T00:22:54.983Z,63.62
2023-01-22T00:25:23.961Z,63.55
2023-01-22T00:27:51.589Z,63.38
2023-01-22T00:30:19.629Z,63.50
2023-01-22T00:32:47.680Z,63.40
2023-01-22T00:35:16.739Z,63.22
2023-01-22T00:37:44.362Z,63.37
2023-01-22T00:40:13.363Z,63.52
2023-01-22T00:42:41.026Z,63.57
2023-01-22T00:45:09.777Z,63.59
2023-01-22T00:47:37.473Z,63.86
2023-01-22T00:50:05.654Z,63.55
2023-01-22T00:52:35.155Z,63.52
2023-01-22T00:55:02.814Z,63.64
2023-01-22T00:57:30.456Z,63.52
2023-01-22T00:59:58.091Z,63.55
2023-01-22T01:02:25.765Z,63.42
2023-01-22T01:04:53.400Z,63.42
2023-01-22T01:07:21.265Z,63.66
2023-01-22T01:09:50.377Z,63.54
2023-01-22T01:12:18.086Z,63.57
2023-01-22T01:14:45.767Z,64.01
2023-01-22T01:17:13.389Z,63.48
2023-01-22T01:19:41.037Z,63.43
2023-01-22T01:22:08.889Z,63.57
2023-01-22T01:24:37.065Z,63.40
2023-01-22T01:27:06.131Z,63.58
2023-01-22T01:29:33.789Z,63.64
2023-01-22T01:32:01.557Z,63.73
2023-01-22T01:34:29.301Z,63.71
2023-01-22T01:36:56.927Z,63.61
2023-01-22T01:39:24.537Z,63.80
2023-01-22T01:41:52.260Z,63.60
2023-01-22T01:44:23.847Z,63.61
2023-01-22T01:46:55.107Z,63.65
2023-01-22T01:49:29.373Z,63.69
2023-01-22T01:51:59.125Z,63.69
2023-01-22T01:54:27.605Z,63.73
2023-01-22T01:57:01.486Z,63.68
2023-01-22T01:59:33.501Z,63.86
2023-01-22T02:02:03.559Z,63.83
2023-01-22T02:04:31.668Z,63.72
2023-01-22T02:06:59.308Z,63.79
2023-01-22T02:09:28.278Z,63.80
2023-01-22T02:11:55.972Z,63.42
2023-01-22T02:14:26.817Z,63.95
2023-01-22T02:17:03.034Z,63.84
2023-01-22T02:19:30.707Z,63.89
2023-01-22T02:21:59.724Z,63.85
2023-01-22T02:24:31.177Z,63.79
2023-01-22T02:26:58.821Z,63.65
2023-01-22T02:29:26.970Z,63.85
2023-01-22T02:31:54.674Z,63.71
2023-01-22T02:34:24.542Z,63.71
2023-01-22T02:36:53.301Z,63.85
2023-01-22T02:39:22.378Z,63.79
2023-01-22T02:41:50.043Z,63.72
2023-01-22T02:44:17.709Z,64.15
2023-01-22T02:46:45.323Z,64.18
2023-01-22T02:49:13.084Z,63.82
2023-01-22T02:51:40.713Z,63.90
2023-01-22T02:54:08.382Z,63.98
2023-01-22T02:56:37.440Z,63.85
2023-01-22T02:59:05.787Z,63.90
2023-01-22T03:01:33.636Z,63.78
2023-01-22T03:04:11.043Z,63.85
2023-01-22T03:06:40.201Z,64.15
2023-01-22T03:09:08.782Z,64.08
2023-01-22T03:11:39.350Z,63.91
2023-01-22T03:14:24.794Z,63.73
2023-01-22T03:17:10.224Z,64.24
2023-01-22T03:19:55.623Z,63.66
2023-01-22T03:22:23.420Z,63.97
2023-01-22T03:24:52.991Z,63.72
2023-01-22T03:27:23.838Z,63.95
2023-01-22T03:29:51.932Z,64.07
2023-01-22T03:32:20.027Z,64.03
2023-01-22T03:34:47.736Z,64.13
2023-01-22T03:37:15.579Z,63.95
2023-01-22T03:39:43.575Z,63.84
2023-01-22T03:42:11.342Z,64.06
2023-01-22T03:44:40.334Z,63.95
2023-01-22T03:47:07.995Z,63.95
2023-01-22T03:49:35.618Z,63.97
2023-01-22T03:52:03.277Z,64.06
2023-01-22T03:54:30.916Z,63.69
2023-01-22T03:56:58.650Z,64.00
2023-01-22T03:59:26.268Z,63.89
2023-01-22T04:01:55.296Z,64.08
2023-01-22T04:04:22.981Z,63.82
2023-01-22T04:06:50.666Z,63.96
2023-01-22T04:09:18.593Z,63.89
2023-01-22T04:11:46.283Z,64.05
2023-01-22T04:14:13.950Z,63.99
2023-01-22T04:16:41.594Z,63.87
2023-01-22T04:19:11.870Z,64.23
2023-01-22T04:21:39.504Z,64.08
2023-01-22T04:24:07.417Z,64.14
2023-01-22T04:26:35.130Z,63.92
2023-01-22T04:29:02.793Z,63.94
2023-01-22T04:31:30.737Z,64.03
2023-01-22T04:33:58.489Z,64.13
2023-01-22T04:36:29.017Z,64.34
2023-01-22T04:38:56.782Z,63.97
2023-01-22T04:41:24.413Z,64.06
2023-01-22T04:43:52.087Z,63.90
2023-01-22T04:46:19.949Z,63.74
2023-01-22T04:48:47.573Z,64.09
2023-01-22T04:51:15.291Z,64.15
2023-01-22T04:53:44.290Z,63.84
2023-01-22T04:56:11.950Z,64.07
2023-01-22T04:58:39.566Z,64.21
2023-01-22T05:01:07.289Z,64.04
2023-01-22T05:03:34.989Z,64.04
2023-01-22T05:06:03.795Z,64.43
2023-01-22T05:08:31.410Z,64.09
2023-01-22T05:11:02.751Z,64.11
2023-01-22T05:13:30.439Z,64.04
2023-01-22T05:15:58.139Z,64.12
2023-01-22T05:18:25.808Z,64.02
2023-01-22T05:20:53.456Z,64.20
2023-01-22T05:23:21.082Z,63.92
2023-01-22T05:25:49.763Z,64.18
2023-01-22T05:28:18.750Z,63.84
2023-01-22T05:30:48.470Z,64.05
2023-01-22T05:33:16.245Z,63.79
2023-01-22T05:35:43.872Z,63.66
2023-01-22T05:38:11.540Z,63.73
2023-01-22T05:40:39.167Z,63.68
2023-01-22T05:43:06.827Z,63.81
2023-01-22T05:45:35.797Z,63.93
2023-01-22T05:48:03.825Z,64.07
2023-01-22T05:50:31.485Z,64.14
2023-01-22T05:52:59.167Z,63.92
2023-01-22T05:55:26.851Z,64.03
2023-01-22T05:57:54.587Z,63.65
2023-01-22T06:00:22.500Z,63.94
2023-01-22T06:02:55.872Z,64.08
2023-01-22T06:05:23.634Z,64.04
2023-01-22T06:07:51.351Z,64.02
2023-01-22T06:10:20.047Z,63.80
2023-01-22T06:12:48.037Z,64.14
2023-01-22T06:15:15.796Z,63.85
2023-01-22T06:17:43.417Z,64.12
2023-01-22T06:20:12.955Z,64.06
2023-01-22T06:22:40.580Z,64.07
2023-01-22T06:25:09.423Z,64.05
2023-01-22T06:27:37.097Z,64.19
2023-01-22T06:30:05.344Z,64.07
2023-01-22T06:32:32.991Z,63.91
2023-01-22T06:35:00.690Z,64.24
2023-01-22T06:37:29.669Z,64.08
2023-01-22T06:39:57.303Z,64.15
2023-01-22T06:42:24.974Z,64.00
2023-01-22T06:44:52.595Z,64.08
2023-01-22T06:47:20.233Z,64.44
2023-01-22T06:49:47.885Z,64.31
2023-01-22T06:52:15.497Z,64.18
2023-01-22T06:54:44.484Z,64.14
2023-01-22T06:57:12.184Z,64.24
2023-01-22T06:59:39.830Z,64.08
2023-01-22T07:02:07.685Z,64.12
2023-01-22T07:04:35.340Z,64.23
2023-01-22T07:07:02.962Z,64.27
2023-01-22T07:09:30.648Z,64.21
2023-01-22T07:12:01.092Z,63.91
2023-01-22T07:14:36.848Z,64.15
2023-01-22T07:17:05.004Z,64.13
2023-01-22T07:19:32.826Z,64.04
2023-01-22T07:22:00.526Z,64.33
2023-01-22T07:24:28.201Z,64.27
2023-01-22T07:26:55.873Z,64.40
2023-01-22T07:29:24.880Z,64.31
2023-01-22T07:31:52.608Z,64.16
2023-01-22T07:34:20.529Z,64.39
2023-01-22T07:36:48.180Z,64.42
2023-01-22T07:39:15.823Z,64.27
2023-01-22T07:41:43.564Z,64.31
2023-01-22T07:44:11.626Z,64.13
2023-01-22T07:46:40.687Z,64.29
2023-01-22T07:49:08.539Z,64.17
2023-01-22T07:51:36.262Z,64.36
2023-01-22T07:54:04.533Z,64.58
2023-01-22T07:56:32.219Z,64.06
2023-01-22T07:59:00.172Z,64.18
2023-01-22T08:01:27.917Z,64.29
2023-01-22T08:03:57.282Z,63.90
2023-01-22T08:06:25.093Z,64.38
2023-01-22T08:08:52.740Z,64.38
2023-01-22T08:11:20.387Z,64.17
2023-01-22T08:13:48.049Z,64.10
2023-01-22T08:16:15.720Z,64.16
2023-01-22T08:18:43.409Z,64.32
2023-01-22T08:21:12.476Z,64.25
2023-01-22T08:23:40.093Z,64.33
2023-01-22T08:26:07.776Z,64.17
2023-01-22T08:28:35.409Z,64.15
2023-01-22T08:31:06.527Z,64.35
2023-01-22T08:33:35.429Z,64.14
2023-01-22T08:36:03.085Z,64.48
2023-01-22T08:38:32.052Z,64.21
2023-01-22T08:40:59.721Z,64.23
2023-01-22T08:43:27.505Z,64.36
2023-01-22T08:45:55.218Z,64.53
2023-01-22T08:48:22.911Z,64.42
2023-01-22T08:50:50.595Z,64.21
2023-01-22T08:53:18.254Z,64.39
2023-01-22T08:55:51.075Z,64.14
2023-01-22T08:58:20.407Z,64.16
2023-01-22T09:00:48.085Z,64.29
2023-01-22T09:03:15.752Z,64.39
2023-01-22T09:05:43.847Z,64.37
2023-01-22T09:08:11.452Z,64.32
2023-01-22T09:10:39.224Z,64.42
2023-01-22T09:13:08.187Z,64.38
2023-01-22T09:15:35.836Z,64.13
2023-01-22T09:18:03.562Z,64.47
2023-01-22T09:20:31.207Z,64.37
2023-01-22T09:22:58.870Z,64.45
2023-01-22T09:25:26.711Z,64.41
2023-01-22T09:27:58.452Z,64.42
2023-01-22T09:30:27.882Z,64.42
2023-01-22T09:32:55.510Z,64.47
2023-01-22T09:35:23.220Z,64.51
2023-01-22T09:37:50.892Z,64.43
2023-01-22T09:40:26.521Z,64.61
2023-01-22T09:43:11.238Z,64.58
2023-01-22T09:45:42.331Z,64.57
2023-01-22T09:48:16.110Z,64.70
2023-01-22T09:50:44.014Z,64.54
2023-01-22T09:53:16.723Z,64.36
2023-01-22T09:55:46.987Z,64.78
2023-01-22T09:58:17.034Z,64.67
2023-01-22T10:00:49.768Z,64.34
2023-01-22T10:03:24.347Z,57.58
2023-01-22T10:05:56.422Z,52.96
2023-01-22T10:08:28.878Z,50.27
2023-01-22T10:10:56.984Z,48.49
2023-01-22T10:13:26.371Z,48.35
2023-01-22T10:15:56.985Z,48.03
2023-01-22T10:18:34.484Z,46.91
2023-01-22T10:21:14.270Z,46.41
2023-01-22T10:23:41.945Z,45.78
2023-01-22T10:26:17.983Z,45.66
2023-01-22T10:28:47.101Z,45.41
2023-01-22T10:31:38.088Z,44.94
2023-01-22T10:34:13.976Z,45.26
2023-01-22T10:36:47.510Z,45.05
2023-01-22T10:39:17.269Z,44.69
2023-01-22T10:41:47.009Z,44.19
2023-01-22T10:44:21.551Z,44.38
2023-01-22T10:46:51.602Z,44.38
2023-01-22T10:49:21.873Z,43.95
2023-01-22T10:51:55.613Z,43.49
2023-01-22T10:54:28.281Z,44.04
2023-01-22T10:57:06.000Z,43.34
2023-01-22T10:59:34.262Z,43.12
2023-01-22T11:02:12.243Z,42.50
2023-01-22T11:04:39.921Z,42.89
2023-01-22T11:07:09.401Z,43.25
2023-01-22T11:09:42.709Z,43.16
2023-01-22T11:12:17.173Z,45.51
2023-01-22T11:14:46.511Z,46.73
2023-01-22T11:17:22.795Z,47.35
2023-01-22T11:19:58.216Z,47.99
2023-01-22T11:22:33.360Z,47.98
2023-01-22T11:25:01.105Z,48.03
2023-01-22T11:28:00.512Z,48.49
2023-01-22T11:30:54.280Z,48.85
2023-01-22T11:33:33.557Z,49.07
2023-01-22T11:36:07.221Z,49.48
2023-01-22T11:38:43.576Z,48.52
2023-01-22T11:41:28.089Z,49.41
2023-01-22T11:44:24.067Z,50.22
2023-01-22T11:47:10.082Z,50.82
2023-01-22T11:49:50.030Z,51.02
2023-01-22T11:52:27.632Z,51.13
2023-01-22T11:55:11.405Z,51.33
2023-01-22T11:57:43.958Z,51.88
2023-01-22T12:00:27.232Z,51.91
2023-01-22T12:03:45.979Z,52.39
2023-01-22T12:06:31.390Z,52.59
2023-01-22T12:09:08.393Z,52.89
2023-01-22T12:11:53.691Z,53.20
2023-01-22T12:14:36.605Z,53.63
2023-01-22T12:17:17.509Z,53.45
2023-01-22T12:20:04.160Z,53.70
2023-01-22T12:22:39.465Z,53.83
2023-01-22T12:25:19.468Z,54.44
2023-01-22T12:27:53.391Z,54.15
2023-01-22T12:30:24.629Z,54.54
2023-01-22T12:32:56.942Z,54.62
2023-01-22T12:35:25.919Z,55.02
2023-01-22T12:38:03.723Z,55.03
2023-01-22T12:40:50.200Z,54.85
2023-01-22T12:43:23.500Z,55.10
2023-01-22T12:45:56.624Z,55.32
2023-01-22T12:48:29.803Z,55.44
2023-01-22T12:50:58.994Z,55.59
2023-01-22T12:53:30.814Z,55.65
2023-01-22T12:56:00.889Z,55.69
2023-01-22T12:58:31.207Z,55.90
2023-01-22T13:01:08.673Z,55.99
2023-01-22T13:03:37.263Z,56.22
2023-01-22T13:06:19.560Z,56.02
2023-01-22T13:08:48.634Z,56.43
2023-01-22T13:11:30.272Z,56.53
2023-01-22T13:14:14.873Z,56.43
2023-01-22T13:16:54.873Z,56.60
2023-01-22T13:19:24.919Z,56.77
2023-01-22T13:21:53.667Z,56.68
2023-01-22T13:24:22.944Z,57.07
2023-01-22T13:26:53.832Z,56.92
2023-01-22T13:29:27.060Z,56.88
2023-01-22T13:31:56.535Z,57.23
2023-01-22T13:34:25.095Z,57.17
2023-01-22T13:36:53.270Z,57.09
2023-01-22T13:39:26.509Z,57.12
2023-01-22T13:41:56.210Z,56.96
2023-01-22T13:44:26.776Z,57.32
2023-01-22T13:46:54.991Z,57.18
2023-01-22T13:49:24.901Z,57.42
2023-01-22T13:51:53.255Z,57.45
2023-01-22T13:54:26.236Z,57.69
2023-01-22T13:56:53.941Z,57.68
2023-01-22T13:59:23.840Z,57.46
2023-01-22T14:01:52.112Z,57.72
2023-01-22T14:04:28.807Z,58.11
2023-01-22T14:06:57.173Z,57.70
2023-01-22T14:09:31.665Z,57.70
2023-01-22T14:12:00.024Z,58.23
2023-01-22T14:14:28.088Z,58.04
2023-01-22T14:16:55.802Z,58.05
2023-01-22T14:19:24.519Z,57.94
2023-01-22T14:21:52.149Z,57.99
2023-01-22T14:24:19.801Z,58.16
2023-01-22T14:26:48.802Z,57.98
2023-01-22T14:29:16.443Z,57.97
2023-01-22T14:31:44.199Z,58.41
2023-01-22T14:34:12.462Z,58.16
2023-01-22T14:36:40.083Z,58.34
2023-01-22T14:39:08.157Z,58.32
2023-01-22T14:41:35.951Z,58.48
2023-01-22T14:44:05.421Z,58.38
2023-01-22T14:46:33.254Z,58.75
2023-01-22T14:49:01.876Z,58.87
2023-01-22T14:51:29.541Z,58.84
2023-01-22T14:53:58.110Z,58.53
2023-01-22T14:56:25.896Z,58.66
2023-01-22T14:58:53.529Z,58.75
2023-01-22T15:01:23.946Z,58.90
2023-01-22T15:03:52.322Z,58.65
2023-01-22T15:06:19.971Z,58.74
2023-01-22T15:08:47.659Z,58.58
2023-01-22T15:11:15.293Z,58.91
2023-01-22T15:13:42.926Z,58.70
2023-01-22T15:16:12.054Z,58.99
2023-01-22T15:18:41.058Z,59.19
2023-01-22T15:21:09.088Z,59.24
2023-01-22T15:23:36.814Z,58.95
2023-01-22T15:26:07.961Z,59.04
2023-01-22T15:28:35.701Z,59.16
2023-01-22T15:31:07.642Z,59.09
2023-01-22T15:33:35.600Z,59.02
2023-01-22T15:36:05.811Z,59.13
2023-01-22T15:38:33.496Z,59.56
2023-01-22T15:41:06.080Z,59.28
2023-01-22T15:43:34.365Z,59.55
2023-01-22T15:46:02.095Z,59.32
2023-01-22T15:48:29.802Z,59.24
2023-01-22T15:51:08.568Z,59.51
2023-01-22T15:53:36.314Z,59.37
2023-01-22T15:56:04.455Z,59.59
2023-01-22T15:58:33.272Z,59.26
2023-01-22T16:01:01.168Z,59.46
2023-01-22T16:03:28.836Z,59.48
2023-01-22T16:05:56.465Z,59.45
2023-01-22T16:08:25.463Z,59.67
2023-01-22T16:10:53.081Z,59.88
2023-01-22T16:13:20.722Z,59.42
2023-01-22T16:15:57.724Z,59.67
2023-01-22T16:18:25.366Z,59.78
2023-01-22T16:20:53.009Z,59.60
2023-01-22T16:23:20.896Z,59.65
2023-01-22T16:25:49.883Z,59.46
2023-01-22T16:28:17.493Z,59.81
2023-01-22T16:30:45.231Z,59.86
2023-01-22T16:33:19.832Z,59.95
2023-01-22T16:35:47.614Z,59.87
2023-01-22T16:38:15.386Z,60.14
2023-01-22T16:40:43.008Z,59.55
2023-01-22T16:43:12.019Z,59.99
2023-01-22T16:45:39.650Z,60.00
2023-01-22T16:48:07.487Z,59.98
2023-01-22T16:50:35.252Z,59.90
2023-01-22T16:53:02.879Z,59.84
2023-01-22T16:55:30.543Z,59.99
2023-01-22T16:58:00.093Z,59.92
2023-01-22T17:00:29.105Z,59.92
2023-01-22T17:02:56.788Z,60.32
2023-01-22T17:05:24.464Z,60.12
2023-01-22T17:07:52.157Z,60.02
2023-01-22T17:10:20.338Z,60.14
2023-01-22T17:12:48.160Z,59.91
2023-01-22T17:15:15.828Z,60.21
2023-01-22T17:17:44.801Z,60.21
2023-01-22T17:20:13.307Z,60.34
2023-01-22T17:22:41.118Z,60.63
2023-01-22T17:25:09.430Z,60.24
2023-01-22T17:27:37.209Z,60.27
2023-01-22T17:30:05.691Z,60.23
2023-01-22T17:32:33.374Z,60.20
2023-01-22T17:35:02.718Z,60.10
2023-01-22T17:37:30.476Z,59.81
2023-01-22T17:39:58.283Z,59.32
2023-01-22T17:42:25.952Z,59.00
2023-01-22T17:44:53.601Z,59.09
2023-01-22T17:47:21.326Z,59.41
2023-01-22T17:49:49.161Z,59.24
2023-01-22T17:52:20.383Z,59.15
2023-01-22T17:54:48.100Z,59.26
2023-01-22T17:57:15.917Z,59.44
2023-01-22T17:59:43.565Z,59.69
2023-01-22T18:02:11.399Z,59.89
2023-01-22T18:04:39.056Z,59.94
2023-01-22T18:07:06.739Z,60.06
2023-01-22T18:09:35.759Z,60.21
2023-01-22T18:12:03.389Z,60.25
2023-01-22T18:14:33.985Z,60.17
2023-01-22T18:17:02.647Z,60.17
2023-01-22T18:19:30.333Z,60.63
2023-01-22T18:21:57.944Z,60.31
2023-01-22T18:24:26.470Z,60.24
2023-01-22T18:26:57.809Z,60.37
2023-01-22T18:29:26.618Z,60.44
2023-01-22T18:31:54.544Z,60.24
2023-01-22T18:34:22.209Z,60.50
2023-01-22T18:36:49.855Z,60.48
2023-01-22T18:39:19.514Z,60.41
2023-01-22T18:41:47.815Z,60.73
2023-01-22T18:44:19.360Z,60.64
2023-01-22T18:46:51.646Z,60.70
2023-01-22T18:49:20.049Z,60.50
2023-01-22T18:51:47.704Z,60.62
2023-01-22T18:54:16.337Z,60.61
2023-01-22T18:56:43.967Z,60.55
2023-01-22T18:59:12.995Z,60.82
2023-01-22T19:01:43.597Z,60.87
2023-01-22T19:04:17.921Z,60.78
2023-01-22T19:06:48.142Z,60.77
2023-01-22T19:09:16.446Z,60.92
2023-01-22T19:11:47.039Z,60.94
2023-01-22T19:14:16.522Z,61.01
2023-01-22T19:16:48.456Z,61.19
2023-01-22T19:19:16.924Z,60.84
2023-01-22T19:21:47.129Z,61.04
2023-01-22T19:24:16.230Z,60.95
2023-01-22T19:26:46.442Z,61.02
2023-01-22T19:29:17.244Z,61.13
2023-01-22T19:31:51.798Z,61.27
2023-01-22T19:34:24.224Z,61.12
2023-01-22T19:36:53.633Z,60.97
2023-01-22T19:39:22.466Z,61.27
2023-01-22T19:41:50.365Z,61.05
2023-01-22T19:44:18.140Z,61.03
2023-01-22T19:46:47.395Z,61.24
2023-01-22T19:49:15.164Z,61.17
2023-01-22T19:51:43.059Z,61.16
2023-01-22T19:54:10.975Z,61.31
2023-01-22T19:56:39.884Z,61.19
2023-01-22T19:59:11.082Z,61.40
2023-01-22T20:01:40.135Z,61.16
2023-01-22T20:04:12.537Z,61.26
2023-01-22T20:06:41.136Z,61.36
2023-01-22T20:09:08.794Z,61.15
2023-01-22T20:11:36.702Z,61.00
2023-01-22T20:14:04.403Z,61.26
2023-01-22T20:16:32.180Z,61.34
2023-01-22T20:18:59.861Z,61.02
2023-01-22T20:21:29.991Z,61.38
2023-01-22T20:23:57.691Z,60.96
2023-01-22T20:26:25.357Z,61.48
2023-01-22T20:28:53.051Z,60.99
2023-01-22T20:31:23.504Z,61.27
2023-01-22T20:33:52.430Z,61.41
2023-01-22T20:36:21.672Z,61.34
2023-01-22T20:38:52.984Z,61.22
2023-01-22T20:41:21.290Z,61.34
2023-01-22T20:43:49.520Z,61.52
2023-01-22T20:46:19.860Z,61.49
2023-01-22T20:48:48.469Z,61.26
2023-01-22T20:51:18.106Z,61.82
2023-01-22T20:53:46.646Z,61.49
2023-01-22T20:56:18.082Z,61.47
2023-01-22T20:58:45.826Z,61.16
2023-01-22T21:01:15.942Z,61.29
2023-01-22T21:03:44.207Z,61.55
2023-01-22T21:06:14.257Z,61.48
2023-01-22T21:08:42.232Z,61.51
2023-01-22T21:11:12.582Z,61.59
2023-01-22T21:13:41.591Z,61.50
2023-01-22T21:16:10.974Z,61.58
2023-01-22T21:18:41.439Z,61.28
2023-01-22T21:21:09.737Z,61.46
2023-01-22T21:23:37.467Z,61.54
2023-01-22T21:26:05.854Z,61.33
2023-01-22T21:28:33.817Z,61.52
2023-01-22T21:31:07.661Z,61.88
2023-01-22T21:33:35.307Z,61.58
2023-01-22T21:36:03.096Z,61.62
2023-01-22T21:38:30.971Z,61.70
2023-01-22T21:41:06.517Z,61.60
2023-01-22T21:43:52.597Z,61.76
2023-01-22T21:46:25.309Z,61.78
2023-01-22T21:48:55.164Z,61.45
2023-01-22T21:51:22.888Z,61.38
2023-01-22T21:53:50.558Z,61.72
2023-01-22T21:56:18.184Z,61.74
2023-01-22T21:58:46.086Z,61.73
2023-01-22T22:01:16.189Z,61.66
2023-01-22T22:03:45.465Z,61.85
2023-01-22T22:06:14.198Z,61.47
2023-01-22T22:08:43.508Z,61.79
2023-01-22T22:11:12.588Z,61.71
2023-01-22T22:13:41.058Z,61.87
2023-01-22T22:16:09.943Z,61.57
2023-01-22T22:18:38.476Z,61.81
2023-01-22T22:21:09.321Z,61.82
2023-01-22T22:23:37.476Z,61.48
2023-01-22T22:26:06.688Z,61.80
2023-01-22T22:28:34.918Z,62.05
2023-01-22T22:31:04.034Z,61.79
2023-01-22T22:33:31.860Z,61.96
2023-01-22T22:36:00.961Z,61.85
2023-01-22T22:38:30.048Z,61.91
2023-01-22T22:41:01.898Z,61.68
2023-01-22T22:43:32.948Z,61.93
2023-01-22T22:46:05.973Z,62.15
2023-01-22T22:48:33.693Z,61.96
2023-01-22T22:51:01.738Z,61.88
2023-01-22T22:53:30.733Z,61.93
2023-01-22T22:55:58.338Z,61.95
2023-01-22T22:58:26.019Z,62.23
2023-01-22T23:00:53.627Z,62.03
2023-01-22T23:03:21.339Z,62.11
2023-01-22T23:05:48.985Z,59.63
2023-01-22T23:08:16.772Z,57.84
2023-01-22T23:10:45.735Z,55.61
2023-01-22T23:13:13.424Z,54.77
2023-01-22T23:15:41.039Z,54.08
2023-01-22T23:18:09.041Z,53.99
2023-01-22T23:20:36.701Z,52.65
2023-01-22T23:23:04.475Z,51.88
2023-01-22T23:25:32.233Z,50.41
2023-01-22T23:28:01.268Z,50.22
2023-01-22T23:30:29.053Z,50.54
2023-01-22T23:32:56.693Z,50.38
2023-01-22T23:35:24.315Z,49.43
2023-01-22T23:37:51.948Z,48.76
2023-01-22T23:40:19.909Z,48.47
2023-01-22T23:42:49.447Z,49.22
2023-01-22T23:45:18.528Z,48.91
2023-01-22T23:47:46.170Z,48.88
2023-01-22T23:50:13.893Z,48.58
2023-01-22T23:52:41.533Z,48.46
2023-01-22T23:55:09.866Z,47.80
2023-01-22T23:57:37.631Z,48.31
